createdAt,value
2019-02-14T00:01:52.539Z,37.20
2019-02-14T00:04:20.371Z,36.10
2019-02-14T00:06:48.336Z,34.90
2019-02-14T00:09:16.599Z,34.40
2019-02-14T00:11:44.494Z,34.80
2019-02-14T00:14:12.364Z,34.90
2019-02-14T00:16:40.221Z,34.60
2019-02-14T00:19:08.127Z,34.90
2019-02-14T00:21:36.019Z,35.20
2019-02-14T00:24:03.887Z,35.30
2019-02-14T00:26:31.725Z,35.70
2019-02-14T00:28:59.639Z,35.60
2019-02-14T00:31:27.492Z,35.30
2019-02-14T00:33:55.386Z,35.80
2019-02-14T00:36:23.274Z,36.30
2019-02-14T00:38:51.158Z,36.20
2019-02-14T00:41:19.008Z,35.50
2019-02-14T00:43:46.917Z,36.60
2019-02-14T00:46:14.992Z,38.30
2019-02-14T00:48:42.819Z,39.20
2019-02-14T00:51:10.695Z,39.50
2019-02-14T00:53:38.811Z,39.30
2019-02-14T00:56:06.624Z,39.90
2019-02-14T00:58:34.490Z,38.40
2019-02-14T01:01:02.600Z,38.20
2019-02-14T01:03:30.438Z,38.40
2019-02-14T01:05:58.390Z,35.10
2019-02-14T01:08:26.278Z,37.20
2019-02-14T01:10:54.155Z,37.60
2019-02-14T01:13:23.079Z,37.70
2019-02-14T01:15:51.394Z,36.30
2019-02-14T01:18:19.228Z,34.50
2019-02-14T01:20:47.072Z,33.70
2019-02-14T01:23:15.247Z,33.00
2019-02-14T01:25:43.116Z,33.90
2019-02-14T01:28:10.948Z,34.50
2019-02-14T01:30:38.823Z,33.80
2019-02-14T01:33:06.683Z,31.90
2019-02-14T01:35:41.781Z,32.50
2019-02-14T01:38:04.599Z,32.50
2019-02-14T01:40:32.473Z,32.80
2019-02-14T01:43:00.350Z,32.50
2019-02-14T01:45:28.254Z,32.50
2019-02-14T01:47:56.049Z,32.90
2019-02-14T01:50:23.880Z,33.60
2019-02-14T01:52:51.728Z,33.50
2019-02-14T01:55:19.649Z,34.00
2019-02-14T01:57:47.504Z,34.40
2019-02-14T02:00:16.673Z,34.80
2019-02-14T02:02:44.516Z,35.00
2019-02-14T02:05:12.407Z,35.50
2019-02-14T02:07:40.602Z,35.50
2019-02-14T02:10:10.398Z,35.90
2019-02-14T02:12:38.396Z,35.70
2019-02-14T02:15:09.358Z,36.20
2019-02-14T02:17:38.120Z,37.50
2019-02-14T02:20:06.942Z,37.90
2019-02-14T02:22:34.878Z,37.90
2019-02-14T02:25:03.860Z,34.50
2019-02-14T02:27:31.690Z,33.90
2019-02-14T02:29:59.560Z,34.90
2019-02-14T02:32:27.476Z,35.20
2019-02-14T02:34:55.307Z,36.80
2019-02-14T02:37:23.153Z,36.00
2019-02-14T02:39:50.978Z,35.10
2019-02-14T02:42:18.819Z,35.20
2019-02-14T02:44:48.564Z,33.30
2019-02-14T02:47:16.583Z,31.90
2019-02-14T02:49:47.236Z,31.70
2019-02-14T02:52:16.912Z,31.80
2019-02-14T02:54:44.754Z,31.20
2019-02-14T02:57:12.608Z,30.90
2019-02-14T02:59:40.475Z,30.90
2019-02-14T03:02:08.585Z,30.90
2019-02-14T03:04:36.395Z,30.40
2019-02-14T03:07:04.423Z,29.60
2019-02-14T03:09:32.355Z,29.00
2019-02-14T03:12:00.190Z,29.30
2019-02-14T03:14:28.031Z,29.60
2019-02-14T03:16:55.896Z,30.30
2019-02-14T03:19:23.692Z,31.10
2019-02-14T03:21:51.548Z,31.50
2019-02-14T03:24:19.356Z,32.90
2019-02-14T03:26:47.223Z,33.90
2019-02-14T03:29:15.386Z,33.70
2019-02-14T03:31:43.252Z,35.40
2019-02-14T03:34:11.174Z,37.20
2019-02-14T03:36:39.078Z,35.60
2019-02-14T03:39:06.919Z,36.10
2019-02-14T03:41:34.789Z,36.60
2019-02-14T03:44:02.687Z,35.30
2019-02-14T03:46:30.567Z,32.50
2019-02-14T03:48:58.377Z,31.60
2019-02-14T03:51:26.247Z,31.40
2019-02-14T03:53:54.136Z,30.00
2019-02-14T03:56:22.076Z,29.80
2019-02-14T03:58:49.902Z,29.60
2019-02-14T04:01:17.748Z,30.70
2019-02-14T04:03:45.595Z,32.50
2019-02-14T04:06:13.406Z,33.50
2019-02-14T04:08:41.315Z,33.90
2019-02-14T04:11:09.152Z,34.30
2019-02-14T04:13:37.006Z,34.80
2019-02-14T04:16:04.873Z,36.60
2019-02-14T04:18:32.749Z,38.30
2019-02-14T04:21:03.288Z,39.10
2019-02-14T04:23:31.152Z,40.20
2019-02-14T04:25:58.975Z,40.80
2019-02-14T04:28:26.843Z,40.80
2019-02-14T04:30:54.676Z,40.80
2019-02-14T04:33:22.529Z,40.80
2019-02-14T04:35:50.338Z,40.90
2019-02-14T04:38:18.530Z,42.30
2019-02-14T04:40:46.384Z,42.90
2019-02-14T04:43:14.213Z,43.10
2019-02-14T04:45:42.067Z,43.50
2019-02-14T04:48:09.929Z,44.00
2019-02-14T04:50:37.802Z,44.00
2019-02-14T04:53:05.688Z,43.30
2019-02-14T04:55:36.080Z,44.20
2019-02-14T04:58:03.959Z,44.30
2019-02-14T05:00:31.843Z,44.20
2019-02-14T05:02:59.652Z,42.90
2019-02-14T05:05:27.488Z,40.90
2019-02-14T05:07:55.464Z,38.70
2019-02-14T05:10:23.326Z,37.00
2019-02-14T05:12:51.169Z,37.70
2019-02-14T05:15:19.090Z,35.60
2019-02-14T05:17:46.946Z,33.30
2019-02-14T05:20:14.755Z,32.10
2019-02-14T05:22:42.643Z,33.20
2019-02-14T05:25:10.770Z,33.10
2019-02-14T05:27:38.586Z,33.20
2019-02-14T05:30:09.226Z,34.60
2019-02-14T05:32:37.080Z,35.10
2019-02-14T05:35:05.435Z,34.90
2019-02-14T05:37:33.377Z,34.90
2019-02-14T05:40:01.255Z,35.50
2019-02-14T05:42:29.082Z,36.20
2019-02-14T05:44:56.950Z,36.60
2019-02-14T05:47:24.809Z,35.20
2019-02-14T05:49:54.431Z,34.60
2019-02-14T05:52:22.356Z,32.70
2019-02-14T05:54:50.192Z,32.90
2019-02-14T05:57:18.062Z,31.70
2019-02-14T05:59:45.898Z,31.00
2019-02-14T06:02:15.635Z,30.70
2019-02-14T06:04:43.501Z,30.00
2019-02-14T06:07:11.387Z,30.10
2019-02-14T06:09:39.227Z,30.20
2019-02-14T06:12:07.086Z,30.30
2019-02-14T06:14:35.191Z,30.80
2019-02-14T06:17:05.444Z,30.00
2019-02-14T06:19:33.307Z,29.60
2019-02-14T06:22:01.159Z,29.70
2019-02-14T06:24:29.071Z,30.00
2019-02-14T06:26:56.891Z,30.90
2019-02-14T06:29:24.740Z,30.90
2019-02-14T06:31:52.539Z,30.80
2019-02-14T06:34:20.437Z,32.00
2019-02-14T06:36:48.296Z,31.60
2019-02-14T06:39:16.175Z,32.20
2019-02-14T06:41:44.013Z,32.10
2019-02-14T06:44:11.891Z,31.90
2019-02-14T06:46:39.716Z,33.30
2019-02-14T06:49:07.620Z,34.20
2019-02-14T06:51:35.462Z,35.70
2019-02-14T06:54:03.267Z,36.10
2019-02-14T06:56:31.115Z,34.70
2019-02-14T06:58:59.014Z,33.90
2019-02-14T07:01:26.891Z,33.50
2019-02-14T07:03:54.755Z,32.60
2019-02-14T07:06:22.596Z,33.30
2019-02-14T07:08:50.427Z,34.60
2019-02-14T07:11:18.266Z,32.40
2019-02-14T07:13:46.117Z,33.30
2019-02-14T07:16:13.948Z,32.00
2019-02-14T07:18:41.811Z,31.20
2019-02-14T07:21:09.661Z,29.70
2019-02-14T07:23:37.491Z,30.00
2019-02-14T07:26:05.389Z,30.00
2019-02-14T07:28:34.479Z,30.20
2019-02-14T07:31:02.463Z,30.30
2019-02-14T07:33:30.433Z,31.40
2019-02-14T07:35:58.376Z,31.20
2019-02-14T07:38:26.293Z,30.20
2019-02-14T07:40:54.104Z,28.60
2019-02-14T07:43:21.977Z,27.50
2019-02-14T07:45:49.831Z,25.70
2019-02-14T07:48:17.749Z,23.20
2019-02-14T07:50:45.623Z,21.90
2019-02-14T07:53:13.466Z,21.50
2019-02-14T07:55:41.293Z,20.60
2019-02-14T07:58:09.243Z,20.40
2019-02-14T08:00:37.084Z,20.10
2019-02-14T08:03:04.936Z,21.30
2019-02-14T08:05:32.859Z,20.30
2019-02-14T08:08:01.178Z,20.20
2019-02-14T08:10:29.015Z,19.70
2019-02-14T08:12:56.889Z,19.50
2019-02-14T08:15:24.773Z,20.30
2019-02-14T08:17:52.633Z,20.00
2019-02-14T08:20:20.537Z,17.50
2019-02-14T08:22:48.367Z,15.60
2019-02-14T08:25:16.495Z,12.70
2019-02-14T08:27:44.345Z,12.40
2019-02-14T08:30:13.894Z,10.50
2019-02-14T08:32:41.848Z,8.60
2019-02-14T08:35:09.739Z,7.80
2019-02-14T08:37:45.093Z,8.00
2019-02-14T08:40:11.325Z,6.80
2019-02-14T08:42:39.211Z,5.40
2019-02-14T08:45:08.785Z,4.10
2019-02-14T08:47:36.620Z,4.20
2019-02-14T08:50:05.067Z,3.50
2019-02-14T08:52:33.208Z,1.30
2019-02-14T08:55:01.134Z,1.00
2019-02-14T08:57:29.008Z,2.40
2019-02-14T08:59:56.879Z,3.00
2019-02-14T09:02:27.280Z,1.30
2019-02-14T09:04:55.440Z,1.30
2019-02-14T09:07:23.329Z,1.00
2019-02-14T09:09:51.189Z,1.00
2019-02-14T09:12:19.104Z,1.00
2019-02-14T09:14:46.958Z,1.00
2019-02-14T09:17:14.843Z,1.00
2019-02-14T09:19:42.671Z,1.00
2019-02-14T09:22:10.581Z,1.00
2019-02-14T09:24:38.460Z,1.00
2019-02-14T09:27:06.444Z,1.00
2019-02-14T09:29:34.269Z,1.00
2019-02-14T09:32:02.196Z,1.00
2019-02-14T09:34:30.111Z,1.00
2019-02-14T09:36:57.958Z,1.00
2019-02-14T09:39:25.875Z,1.00
2019-02-14T09:41:53.805Z,1.00
2019-02-14T09:44:21.671Z,1.00
2019-02-14T09:46:49.568Z,1.00
2019-02-14T09:49:17.438Z,1.00
2019-02-14T09:51:45.322Z,1.00
2019-02-14T09:54:13.168Z,1.00
2019-02-14T09:56:41.098Z,1.00
2019-02-14T09:59:09.022Z,1.00
2019-02-14T10:01:36.878Z,1.00
2019-02-14T10:04:04.886Z,1.00
2019-02-14T10:06:36.675Z,1.00
2019-02-14T10:09:05.038Z,1.00
2019-02-14T10:11:32.908Z,1.00
2019-02-14T10:14:00.773Z,1.00
2019-02-14T10:16:28.744Z,1.00
2019-02-14T10:18:56.732Z,1.00
2019-02-14T10:21:24.616Z,1.00
2019-02-14T10:23:52.587Z,1.00
2019-02-14T10:26:20.538Z,1.00
2019-02-14T10:28:48.431Z,1.00
2019-02-14T10:31:16.331Z,1.00
2019-02-14T10:33:44.245Z,1.00
2019-02-14T10:36:12.156Z,1.00
2019-02-14T10:38:40.028Z,1.00
2019-02-14T10:41:07.887Z,1.00
2019-02-14T10:43:35.710Z,1.00
2019-02-14T10:46:03.622Z,1.00
2019-02-14T10:48:31.458Z,1.00
2019-02-14T10:50:59.431Z,1.00
2019-02-14T10:53:27.334Z,1.00
2019-02-14T10:55:55.258Z,1.00
2019-02-14T10:58:23.122Z,1.00
2019-02-14T11:00:50.974Z,1.00
2019-02-14T11:03:19.000Z,1.00
2019-02-14T11:05:46.871Z,1.00
2019-02-14T11:08:14.778Z,1.00
2019-02-14T11:10:42.670Z,1.00
2019-02-14T11:13:10.526Z,1.00
2019-02-14T11:15:38.465Z,1.00
2019-02-14T11:18:06.457Z,1.00
2019-02-14T11:20:34.427Z,1.00
2019-02-14T11:23:02.632Z,1.00
2019-02-14T11:25:32.247Z,1.00
2019-02-14T11:28:00.147Z,1.00
2019-02-14T11:30:28.045Z,1.60
2019-02-14T11:32:55.934Z,2.30
2019-02-14T11:35:23.835Z,2.70
2019-02-14T11:37:51.681Z,1.60
2019-02-14T11:40:19.575Z,2.40
2019-02-14T11:42:47.481Z,2.60
2019-02-14T11:45:17.679Z,2.70
2019-02-14T11:47:45.542Z,3.70
2019-02-14T11:50:13.417Z,4.00
2019-02-14T11:52:41.467Z,4.30
2019-02-14T11:55:09.528Z,4.90
2019-02-14T11:57:37.423Z,7.10
2019-02-14T12:00:09.758Z,6.00
2019-02-14T12:02:38.007Z,7.10
2019-02-14T12:05:06.496Z,8.30
2019-02-14T12:07:34.360Z,6.20
2019-02-14T12:10:02.295Z,7.90
2019-02-14T12:12:30.501Z,7.00
2019-02-14T12:14:58.374Z,7.00
2019-02-14T12:17:26.352Z,7.30
2019-02-14T12:19:54.214Z,7.80
2019-02-14T12:22:22.136Z,7.90
2019-02-14T12:24:50.032Z,8.00
2019-02-14T12:27:17.920Z,9.50
2019-02-14T12:29:45.770Z,8.10
2019-02-14T12:32:13.685Z,7.70
2019-02-14T12:34:41.568Z,10.70
2019-02-14T12:37:09.471Z,9.10
2019-02-14T12:39:37.394Z,9.10
2019-02-14T12:42:05.345Z,10.40
2019-02-14T12:44:33.267Z,10.00
2019-02-14T12:47:01.280Z,9.70
2019-02-14T12:49:29.172Z,9.90
2019-02-14T12:51:57.103Z,9.90
2019-02-14T12:54:25.079Z,12.00
2019-02-14T12:56:53.236Z,10.80
2019-02-14T12:59:21.148Z,10.50
2019-02-14T13:01:49.025Z,10.70
2019-02-14T13:04:17.129Z,11.00
2019-02-14T13:06:45.077Z,11.70
2019-02-14T13:09:20.055Z,10.50
2019-02-14T13:11:44.411Z,10.60
2019-02-14T13:14:12.287Z,10.70
2019-02-14T13:16:40.175Z,10.60
2019-02-14T13:19:08.060Z,10.90
2019-02-14T13:21:35.944Z,11.60
2019-02-14T13:24:03.825Z,11.60
2019-02-14T13:26:31.792Z,10.90
2019-02-14T13:28:59.648Z,10.90
2019-02-14T13:31:31.973Z,12.90
2019-02-14T13:33:57.808Z,10.70
2019-02-14T13:36:25.676Z,10.70
2019-02-14T13:38:53.588Z,10.50
2019-02-14T13:41:30.680Z,11.80
2019-02-14T13:43:51.227Z,11.20
2019-02-14T13:46:19.323Z,12.90
2019-02-14T13:48:47.192Z,11.40
2019-02-14T13:51:15.086Z,11.40
2019-02-14T13:53:43.009Z,12.30
2019-02-14T13:56:10.873Z,10.80
2019-02-14T13:58:38.773Z,11.90
2019-02-14T14:01:06.808Z,11.70
2019-02-14T14:03:35.048Z,11.90
2019-02-14T14:06:02.975Z,11.80
2019-02-14T14:08:30.847Z,12.70
2019-02-14T14:10:58.825Z,12.10
2019-02-14T14:13:26.714Z,11.30
2019-02-14T14:15:54.869Z,9.60
2019-02-14T14:18:22.755Z,9.20
2019-02-14T14:20:50.701Z,8.80
2019-02-14T14:23:19.932Z,8.30
2019-02-14T14:25:47.948Z,8.10
2019-02-14T14:28:15.860Z,9.80
2019-02-14T14:30:43.737Z,9.10
2019-02-14T14:33:11.612Z,9.20
2019-02-14T14:35:39.489Z,8.70
2019-02-14T14:38:07.383Z,9.10
2019-02-14T14:40:35.307Z,9.60
2019-02-14T14:43:32.076Z,8.90
2019-02-14T14:46:28.641Z,8.20
2019-02-14T14:48:56.548Z,9.80
2019-02-14T14:51:24.611Z,9.80
2019-02-14T14:53:52.439Z,9.80
2019-02-14T14:56:20.367Z,10.20
2019-02-14T14:58:52.854Z,10.00
2019-02-14T15:01:20.744Z,9.60
2019-02-14T15:03:48.663Z,9.80
2019-02-14T15:06:16.530Z,10.50
2019-02-14T15:08:44.520Z,8.90
2019-02-14T15:11:12.429Z,8.80
2019-02-14T15:13:40.326Z,8.70
2019-02-14T15:16:08.254Z,9.90
2019-02-14T15:18:36.179Z,10.70
2019-02-14T15:21:04.078Z,9.70
2019-02-14T15:23:32.024Z,9.50
2019-02-14T15:25:59.913Z,9.10
2019-02-14T15:28:27.784Z,9.20
2019-02-14T15:30:55.696Z,9.20
2019-02-14T15:33:23.626Z,10.00
2019-02-14T15:35:51.536Z,10.10
2019-02-14T15:38:19.391Z,9.50
2019-02-14T15:40:47.309Z,9.60
2019-02-14T15:43:15.145Z,9.20
2019-02-14T15:45:43.049Z,10.50
2019-02-14T15:48:12.988Z,10.00
2019-02-14T15:50:41.127Z,10.30
2019-02-14T15:53:09.012Z,10.90
2019-02-14T15:55:38.841Z,11.40
2019-02-14T15:58:09.078Z,12.00
2019-02-14T16:00:36.585Z,11.50
2019-02-14T16:03:04.510Z,12.20
2019-02-14T16:05:34.874Z,12.60
2019-02-14T16:08:04.736Z,12.80
2019-02-14T16:10:34.651Z,11.20
2019-02-14T16:13:02.641Z,11.10
2019-02-14T16:15:31.088Z,11.10
2019-02-14T16:18:01.648Z,10.80
2019-02-14T16:20:29.749Z,12.30
2019-02-14T16:22:57.698Z,12.00
2019-02-14T16:25:26.391Z,12.00
2019-02-14T16:27:55.563Z,12.30
2019-02-14T16:30:23.492Z,12.70
2019-02-14T16:32:51.412Z,13.60
2019-02-14T16:35:19.454Z,14.60
2019-02-14T16:37:49.957Z,15.00
2019-02-14T16:40:17.227Z,15.10
2019-02-14T16:42:45.177Z,14.90
2019-02-14T16:45:13.080Z,16.40
2019-02-14T16:47:40.993Z,16.70
2019-02-14T16:50:09.011Z,16.60
2019-02-14T16:52:36.942Z,16.80
2019-02-14T16:55:05.106Z,17.50
2019-02-14T16:57:33.082Z,18.90
2019-02-14T17:00:00.912Z,18.90
2019-02-14T17:02:28.915Z,19.70
2019-02-14T17:04:57.898Z,21.20
2019-02-14T17:07:25.829Z,21.40
2019-02-14T17:09:56.290Z,22.50
2019-02-14T17:12:24.202Z,23.40
2019-02-14T17:14:52.105Z,22.40
2019-02-14T17:17:27.722Z,22.50
2019-02-14T17:19:50.183Z,21.40
2019-02-14T17:22:18.134Z,21.50
2019-02-14T17:24:46.058Z,20.60
2019-02-14T17:27:14.106Z,21.20
2019-02-14T17:29:42.062Z,21.20
2019-02-14T17:32:09.975Z,21.80
2019-02-14T17:34:37.883Z,22.20
2019-02-14T17:37:05.772Z,22.90
2019-02-14T17:39:33.672Z,23.90
2019-02-14T17:42:01.577Z,23.50
2019-02-14T17:44:29.454Z,23.80
2019-02-14T17:46:57.413Z,24.10
2019-02-14T17:49:25.297Z,24.80
2019-02-14T17:51:53.143Z,25.40
2019-02-14T17:54:21.089Z,25.70
2019-02-14T17:56:48.969Z,25.30
2019-02-14T17:59:16.878Z,26.50
2019-02-14T18:01:44.803Z,26.00
2019-02-14T18:04:12.749Z,28.10
2019-02-14T18:06:40.647Z,27.50
2019-02-14T18:09:08.910Z,27.50
2019-02-14T18:11:36.841Z,26.50
2019-02-14T18:14:04.734Z,25.60
2019-02-14T18:16:32.678Z,26.50
2019-02-14T18:19:01.080Z,27.70
2019-02-14T18:21:28.990Z,26.80
2019-02-14T18:23:57.052Z,27.10
2019-02-14T18:26:25.354Z,26.20
2019-02-14T18:28:53.283Z,26.60
2019-02-14T18:31:21.205Z,26.90
2019-02-14T18:33:49.157Z,27.60
2019-02-14T18:36:17.069Z,27.80
2019-02-14T18:38:45.265Z,28.10
2019-02-14T18:41:13.175Z,28.50
2019-02-14T18:43:41.035Z,28.30
2019-02-14T18:46:08.962Z,28.50
2019-02-14T18:48:36.934Z,29.10
2019-02-14T18:51:05.026Z,29.20
2019-02-14T18:53:33.033Z,30.10
2019-02-14T18:56:04.297Z,29.90
2019-02-14T18:58:32.163Z,29.60
2019-02-14T19:01:00.095Z,29.40
2019-02-14T19:03:28.015Z,29.30
2019-02-14T19:05:55.912Z,29.00
2019-02-14T19:08:23.811Z,29.00
2019-02-14T19:10:52.695Z,29.30
2019-02-14T19:13:20.874Z,28.50
2019-02-14T19:15:48.797Z,28.50
2019-02-14T19:18:16.680Z,29.20
2019-02-14T19:20:44.681Z,29.40
2019-02-14T19:23:23.294Z,29.80
2019-02-14T19:25:42.529Z,30.00
2019-02-14T19:28:10.452Z,29.80
2019-02-14T19:30:38.387Z,29.60
2019-02-14T19:33:06.402Z,28.30
2019-02-14T19:35:34.275Z,29.30
2019-02-14T19:38:02.468Z,28.90
2019-02-14T19:40:30.371Z,29.10
2019-02-14T19:42:58.351Z,28.20
2019-02-14T19:45:36.051Z,27.30
2019-02-14T19:47:56.097Z,26.50
2019-02-14T19:50:24.013Z,26.20
2019-02-14T19:52:52.046Z,25.90
2019-02-14T19:55:19.980Z,26.00
2019-02-14T19:57:47.966Z,25.10
2019-02-14T20:00:15.988Z,25.40
2019-02-14T20:02:43.923Z,24.50
2019-02-14T20:05:11.848Z,24.90
2019-02-14T20:07:39.879Z,24.60
2019-02-14T20:10:09.676Z,24.90
2019-02-14T20:12:37.603Z,24.90
2019-02-14T20:15:09.016Z,24.60
2019-02-14T20:17:36.944Z,24.90
2019-02-14T20:20:06.306Z,25.30
2019-02-14T20:22:34.223Z,25.60
2019-02-14T20:25:03.495Z,25.80
2019-02-14T20:27:31.389Z,26.40
2019-02-14T20:29:59.267Z,26.90
2019-02-14T20:32:27.221Z,26.30
2019-02-14T20:34:55.150Z,25.40
2019-02-14T20:37:23.033Z,25.30
2019-02-14T20:39:50.986Z,25.80
2019-02-14T20:42:18.885Z,26.30
2019-02-14T20:44:47.045Z,26.50
2019-02-14T20:47:14.936Z,26.90
2019-02-14T20:49:43.247Z,26.40
2019-02-14T20:52:11.199Z,26.80
2019-02-14T20:54:39.126Z,26.50
2019-02-14T20:57:07.016Z,26.60
2019-02-14T20:59:35.011Z,27.30
2019-02-14T21:02:04.084Z,27.70
2019-02-14T21:04:32.134Z,28.00
2019-02-14T21:07:00.034Z,28.30
2019-02-14T21:09:27.985Z,28.40
2019-02-14T21:11:55.882Z,28.40
2019-02-14T21:14:23.797Z,28.30
2019-02-14T21:16:51.727Z,28.80
2019-02-14T21:19:19.614Z,28.70
2019-02-14T21:21:47.515Z,28.40
2019-02-14T21:24:15.731Z,28.50
2019-02-14T21:26:43.726Z,28.60
2019-02-14T21:29:11.834Z,29.10
2019-02-14T21:31:39.760Z,29.20
2019-02-14T21:34:07.655Z,29.60
2019-02-14T21:36:35.600Z,29.80
2019-02-14T21:39:04.618Z,30.00
2019-02-14T21:41:32.594Z,31.20
2019-02-14T21:44:00.682Z,31.40
2019-02-14T21:46:28.883Z,31.20
2019-02-14T21:48:56.732Z,31.70
2019-02-14T21:51:24.790Z,31.20
2019-02-14T21:53:52.672Z,31.00
2019-02-14T21:56:20.614Z,31.00
2019-02-14T21:58:48.752Z,31.50
2019-02-14T22:01:18.861Z,31.60
2019-02-14T22:03:47.054Z,31.50
2019-02-14T22:06:14.895Z,31.60
2019-02-14T22:08:43.031Z,32.00
2019-02-14T22:11:10.925Z,32.30
2019-02-14T22:13:39.084Z,32.30
2019-02-14T22:16:07.111Z,32.20
2019-02-14T22:18:35.035Z,32.80
2019-02-14T22:21:03.010Z,33.10
2019-02-14T22:23:31.097Z,33.80
2019-02-14T22:25:59.047Z,34.30
2019-02-14T22:28:26.955Z,34.70
2019-02-14T22:30:54.915Z,35.20
2019-02-14T22:33:22.818Z,35.70
2019-02-14T22:35:50.734Z,36.10
2019-02-14T22:38:18.598Z,35.80
2019-02-14T22:40:47.438Z,35.10
2019-02-14T22:43:15.410Z,36.70
2019-02-14T22:45:43.298Z,36.60
2019-02-14T22:48:11.241Z,36.10
2019-02-14T22:50:39.129Z,35.70
2019-02-14T22:53:06.991Z,34.30
2019-02-14T22:55:34.885Z,33.40
2019-02-14T22:58:02.740Z,32.70
2019-02-14T23:00:46.773Z,31.70
2019-02-14T23:03:14.995Z,31.70
2019-02-14T23:05:43.050Z,33.00
2019-02-14T23:08:10.835Z,33.30
2019-02-14T23:10:39.194Z,33.20
2019-02-14T23:13:07.056Z,33.30
2019-02-14T23:15:34.846Z,33.30
2019-02-14T23:18:02.976Z,33.40
2019-02-14T23:20:30.776Z,33.30
2019-02-14T23:22:58.612Z,32.90
2019-02-14T23:25:26.406Z,32.30
2019-02-14T23:27:54.229Z,32.70
2019-02-14T23:30:22.040Z,33.30
2019-02-14T23:32:49.856Z,32.70
2019-02-14T23:35:17.646Z,31.50
2019-02-14T23:37:45.444Z,31.50
2019-02-14T23:40:13.254Z,32.10
2019-02-14T23:42:41.065Z,31.30
2019-02-14T23:45:09.209Z,30.60
2019-02-14T23:47:37.021Z,30.00
2019-02-14T23:50:04.887Z,29.50
2019-02-14T23:52:32.697Z,28.60
2019-02-14T23:55:00.491Z,27.00
2019-02-14T23:57:28.303Z,25.30
2019-02-14T23:59:56.089Z,24.10
